sensor_id;sensor_type;location;lat;lon;timestamp;P1;durP1;ratioP1;P2;durP2;ratioP2
15385;SDS011;7791;47.246;9.648;2024-03-07T00:00:06;42.40;;;17.97;;
15385;SDS011;7791;47.246;9.648;2024-03-07T00:02:43;42.43;;;18.00;;
15385;SDS011;7791;47.246;9.648;2024-03-07T00:08:10;37.17;;;16.37;;
15385;SDS011;7791;47.246;9.648;2024-03-07T00:10:48;40.60;;;17.40;;
15385;SDS011;7791;47.246;9.648;2024-03-07T00:13:21;38.33;;;16.43;;
15385;SDS011;7791;47.246;9.648;2024-03-07T00:15:57;37.50;;;16.00;;
15385;SDS011;7791;47.246;9.648;2024-03-07T00:18:34;35.13;;;16.57;;
15385;SDS011;7791;47.246;9.648;2024-03-07T00:21:19;42.00;;;17.73;;
15385;SDS011;7791;47.246;9.648;2024-03-07T00:23:51;39.57;;;17.73;;
15385;SDS011;7791;47.246;9.648;2024-03-07T00:26:36;44.23;;;18.00;;
15385;SDS011;7791;47.246;9.648;2024-03-07T00:29:09;44.73;;;18.70;;
15385;SDS011;7791;47.246;9.648;2024-03-07T00:31:43;44.70;;;18.63;;
15385;SDS011;7791;47.246;9.648;2024-03-07T00:34:12;47.37;;;18.97;;
15385;SDS011;7791;47.246;9.648;2024-03-07T00:37:05;48.03;;;18.27;;
15385;SDS011;7791;47.246;9.648;2024-03-07T00:39:41;45.47;;;18.87;;
15385;SDS011;7791;47.246;9.648;2024-03-07T00:44:56;43.87;;;18.63;;
15385;SDS011;7791;47.246;9.648;2024-03-07T00:47:43;42.63;;;18.63;;
15385;SDS011;7791;47.246;9.648;2024-03-07T00:50:16;38.43;;;17.83;;
15385;SDS011;7791;47.246;9.648;2024-03-07T00:52:52;42.30;;;18.37;;
15385;SDS011;7791;47.246;9.648;2024-03-07T00:55:32;41.10;;;18.03;;
15385;SDS011;7791;47.246;9.648;2024-03-07T00:58:13;42.93;;;17.23;;
15385;SDS011;7791;47.246;9.648;2024-03-07T01:00:49;48.00;;;18.20;;
15385;SDS011;7791;47.246;9.648;2024-03-07T01:03:28;44.67;;;17.17;;
15385;SDS011;7791;47.246;9.648;2024-03-07T01:06:18;43.53;;;18.27;;
15385;SDS011;7791;47.246;9.648;2024-03-07T01:08:56;43.50;;;18.63;;
15385;SDS011;7791;47.246;9.648;2024-03-07T01:11:35;44.47;;;18.23;;
15385;SDS011;7791;47.246;9.648;2024-03-07T01:14:20;44.13;;;17.77;;
15385;SDS011;7791;47.246;9.648;2024-03-07T01:16:58;47.37;;;18.07;;
15385;SDS011;7791;47.246;9.648;2024-03-07T01:19:43;43.90;;;17.57;;
15385;SDS011;7791;47.246;9.648;2024-03-07T01:22:09;48.67;;;18.93;;
15385;SDS011;7791;47.246;9.648;2024-03-07T01:24:49;50.13;;;18.17;;
15385;SDS011;7791;47.246;9.648;2024-03-07T01:27:32;49.53;;;18.27;;
15385;SDS011;7791;47.246;9.648;2024-03-07T01:30:02;50.20;;;17.67;;
15385;SDS011;7791;47.246;9.648;2024-03-07T01:32:54;50.13;;;18.70;;
15385;SDS011;7791;47.246;9.648;2024-03-07T01:35:30;49.03;;;18.17;;
15385;SDS011;7791;47.246;9.648;2024-03-07T01:38:01;49.70;;;17.83;;
15385;SDS011;7791;47.246;9.648;2024-03-07T01:40:44;46.40;;;17.60;;
15385;SDS011;7791;47.246;9.648;2024-03-07T01:43:23;45.70;;;16.60;;
15385;SDS011;7791;47.246;9.648;2024-03-07T01:45:56;56.00;;;19.03;;
15385;SDS011;7791;47.246;9.648;2024-03-07T01:48:31;52.60;;;18.43;;
15385;SDS011;7791;47.246;9.648;2024-03-07T01:51:04;51.03;;;18.57;;
15385;SDS011;7791;47.246;9.648;2024-03-07T01:53:36;45.30;;;16.87;;
15385;SDS011;7791;47.246;9.648;2024-03-07T01:56:12;50.53;;;18.17;;
15385;SDS011;7791;47.246;9.648;2024-03-07T01:59:06;47.07;;;16.30;;
15385;SDS011;7791;47.246;9.648;2024-03-07T02:04:31;49.67;;;18.13;;
15385;SDS011;7791;47.246;9.648;2024-03-07T02:07:05;47.20;;;17.80;;
15385;SDS011;7791;47.246;9.648;2024-03-07T02:10:35;46.97;;;17.43;;
15385;SDS011;7791;47.246;9.648;2024-03-07T02:16:06;43.13;;;16.00;;
15385;SDS011;7791;47.246;9.648;2024-03-07T02:18:42;44.07;;;15.83;;
15385;SDS011;7791;47.246;9.648;2024-03-07T02:21:14;45.80;;;16.17;;
15385;SDS011;7791;47.246;9.648;2024-03-07T02:23:44;37.47;;;15.50;;
15385;SDS011;7791;47.246;9.648;2024-03-07T02:26:30;38.57;;;14.50;;
15385;SDS011;7791;47.246;9.648;2024-03-07T02:34:39;39.50;;;13.43;;
15385;SDS011;7791;47.246;9.648;2024-03-07T02:37:25;37.97;;;13.27;;
15385;SDS011;7791;47.246;9.648;2024-03-07T02:40:01;32.70;;;13.40;;
15385;SDS011;7791;47.246;9.648;2024-03-07T02:42:42;28.97;;;11.13;;
15385;SDS011;7791;47.246;9.648;2024-03-07T02:45:13;27.03;;;10.93;;
15385;SDS011;7791;47.246;9.648;2024-03-07T02:47:49;22.93;;;9.67;;
15385;SDS011;7791;47.246;9.648;2024-03-07T02:50:23;24.93;;;10.33;;
15385;SDS011;7791;47.246;9.648;2024-03-07T02:52:53;26.53;;;10.97;;
15385;SDS011;7791;47.246;9.648;2024-03-07T02:58:35;27.10;;;11.73;;
15385;SDS011;7791;47.246;9.648;2024-03-07T03:01:12;30.57;;;12.07;;
15385;SDS011;7791;47.246;9.648;2024-03-07T03:06:39;25.60;;;10.80;;
15385;SDS011;7791;47.246;9.648;2024-03-07T03:12:08;25.40;;;10.47;;
15385;SDS011;7791;47.246;9.648;2024-03-07T03:14:41;25.27;;;11.63;;
15385;SDS011;7791;47.246;9.648;2024-03-07T03:17:23;26.57;;;10.77;;
15385;SDS011;7791;47.246;9.648;2024-03-07T03:20:05;22.00;;;9.83;;
15385;SDS011;7791;47.246;9.648;2024-03-07T03:22:47;20.07;;;9.20;;
15385;SDS011;7791;47.246;9.648;2024-03-07T03:25:30;20.40;;;9.17;;
15385;SDS011;7791;47.246;9.648;2024-03-07T03:28:19;22.87;;;9.47;;
15385;SDS011;7791;47.246;9.648;2024-03-07T03:31:02;19.37;;;8.23;;
15385;SDS011;7791;47.246;9.648;2024-03-07T03:33:36;19.90;;;8.53;;
15385;SDS011;7791;47.246;9.648;2024-03-07T03:36:07;21.97;;;9.90;;
15385;SDS011;7791;47.246;9.648;2024-03-07T03:38:51;22.30;;;10.10;;
15385;SDS011;7791;47.246;9.648;2024-03-07T03:44:18;23.57;;;10.40;;
15385;SDS011;7791;47.246;9.648;2024-03-07T03:46:49;22.77;;;10.60;;
15385;SDS011;7791;47.246;9.648;2024-03-07T03:49:20;22.97;;;10.23;;
15385;SDS011;7791;47.246;9.648;2024-03-07T03:51:59;22.60;;;10.37;;
15385;SDS011;7791;47.246;9.648;2024-03-07T03:54:30;23.63;;;9.90;;
15385;SDS011;7791;47.246;9.648;2024-03-07T03:57:17;21.93;;;9.90;;
15385;SDS011;7791;47.246;9.648;2024-03-07T03:59:52;20.60;;;9.67;;
15385;SDS011;7791;47.246;9.648;2024-03-07T04:02:24;15.97;;;6.17;;
15385;SDS011;7791;47.246;9.648;2024-03-07T04:04:57;14.83;;;6.20;;
15385;SDS011;7791;47.246;9.648;2024-03-07T04:07:45;13.77;;;6.00;;
15385;SDS011;7791;47.246;9.648;2024-03-07T04:10:16;14.30;;;6.13;;
15385;SDS011;7791;47.246;9.648;2024-03-07T04:18:49;13.40;;;6.13;;
15385;SDS011;7791;47.246;9.648;2024-03-07T04:21:30;14.43;;;5.80;;
15385;SDS011;7791;47.246;9.648;2024-03-07T04:24:16;14.20;;;6.07;;
15385;SDS011;7791;47.246;9.648;2024-03-07T04:27:08;13.77;;;6.23;;
15385;SDS011;7791;47.246;9.648;2024-03-07T04:29:44;10.77;;;5.17;;
15385;SDS011;7791;47.246;9.648;2024-03-07T04:32:14;15.17;;;6.70;;
15385;SDS011;7791;47.246;9.648;2024-03-07T04:35:01;16.63;;;6.33;;
15385;SDS011;7791;47.246;9.648;2024-03-07T04:37:30;13.00;;;6.17;;
15385;SDS011;7791;47.246;9.648;2024-03-07T04:40:09;13.20;;;6.63;;
15385;SDS011;7791;47.246;9.648;2024-03-07T04:42:45;14.73;;;6.13;;
15385;SDS011;7791;47.246;9.648;2024-03-07T04:45:29;15.17;;;6.50;;
15385;SDS011;7791;47.246;9.648;2024-03-07T04:48:01;17.47;;;5.77;;
15385;SDS011;7791;47.246;9.648;2024-03-07T04:50:52;12.77;;;5.30;;
15385;SDS011;7791;47.246;9.648;2024-03-07T04:53:31;9.73;;;4.20;;
15385;SDS011;7791;47.246;9.648;2024-03-07T04:56:12;12.10;;;4.83;;
15385;SDS011;7791;47.246;9.648;2024-03-07T04:58:46;12.00;;;4.80;;
15385;SDS011;7791;47.246;9.648;2024-03-07T05:01:21;9.50;;;3.90;;
15385;SDS011;7791;47.246;9.648;2024-03-07T05:04:04;9.60;;;4.03;;
15385;SDS011;7791;47.246;9.648;2024-03-07T05:12:25;11.90;;;4.40;;
15385;SDS011;7791;47.246;9.648;2024-03-07T05:14:54;10.83;;;4.53;;
15385;SDS011;7791;47.246;9.648;2024-03-07T05:17:36;11.03;;;4.70;;
15385;SDS011;7791;47.246;9.648;2024-03-07T05:22:55;16.60;;;6.50;;
15385;SDS011;7791;47.246;9.648;2024-03-07T05:25:28;18.20;;;6.80;;
15385;SDS011;7791;47.246;9.648;2024-03-07T05:28:14;22.60;;;9.23;;
15385;SDS011;7791;47.246;9.648;2024-03-07T05:30:48;19.67;;;8.90;;
15385;SDS011;7791;47.246;9.648;2024-03-07T05:33:16;20.07;;;8.80;;
15385;SDS011;7791;47.246;9.648;2024-03-07T05:35:52;21.07;;;8.87;;
15385;SDS011;7791;47.246;9.648;2024-03-07T05:38:23;24.33;;;9.83;;
15385;SDS011;7791;47.246;9.648;2024-03-07T05:41:07;19.17;;;8.13;;
15385;SDS011;7791;47.246;9.648;2024-03-07T05:43:49;20.23;;;8.20;;
15385;SDS011;7791;47.246;9.648;2024-03-07T05:46:23;18.57;;;8.03;;
15385;SDS011;7791;47.246;9.648;2024-03-07T05:52:03;20.13;;;8.87;;
15385;SDS011;7791;47.246;9.648;2024-03-07T05:54:42;19.13;;;8.40;;
15385;SDS011;7791;47.246;9.648;2024-03-07T05:57:18;18.80;;;8.97;;
15385;SDS011;7791;47.246;9.648;2024-03-07T05:59:49;17.67;;;7.53;;
15385;SDS011;7791;47.246;9.648;2024-03-07T06:02:14;15.60;;;7.17;;
15385;SDS011;7791;47.246;9.648;2024-03-07T06:04:55;19.07;;;7.90;;
15385;SDS011;7791;47.246;9.648;2024-03-07T06:07:34;20.07;;;7.67;;
15385;SDS011;7791;47.246;9.648;2024-03-07T06:10:26;19.93;;;8.20;;
15385;SDS011;7791;47.246;9.648;2024-03-07T06:13:02;31.10;;;12.33;;
15385;SDS011;7791;47.246;9.648;2024-03-07T06:15:33;26.63;;;11.33;;
15385;SDS011;7791;47.246;9.648;2024-03-07T06:18:18;22.13;;;9.87;;
15385;SDS011;7791;47.246;9.648;2024-03-07T06:20:50;16.87;;;7.37;;
15385;SDS011;7791;47.246;9.648;2024-03-07T06:23:26;16.60;;;6.73;;
15385;SDS011;7791;47.246;9.648;2024-03-07T06:25:57;20.73;;;7.80;;
15385;SDS011;7791;47.246;9.648;2024-03-07T06:28:49;20.03;;;7.93;;
15385;SDS011;7791;47.246;9.648;2024-03-07T06:31:52;17.80;;;7.47;;
15385;SDS011;7791;47.246;9.648;2024-03-07T06:34:24;16.23;;;6.53;;
15385;SDS011;7791;47.246;9.648;2024-03-07T06:37:04;18.70;;;7.40;;
15385;SDS011;7791;47.246;9.648;2024-03-07T06:39:36;13.20;;;5.67;;
15385;SDS011;7791;47.246;9.648;2024-03-07T06:42:13;11.93;;;5.50;;
15385;SDS011;7791;47.246;9.648;2024-03-07T06:44:56;12.33;;;5.47;;
15385;SDS011;7791;47.246;9.648;2024-03-07T06:47:37;11.97;;;5.87;;
15385;SDS011;7791;47.246;9.648;2024-03-07T06:58:33;12.90;;;6.07;;
15385;SDS011;7791;47.246;9.648;2024-03-07T07:04:14;14.30;;;5.83;;
15385;SDS011;7791;47.246;9.648;2024-03-07T07:06:46;14.43;;;5.73;;
15385;SDS011;7791;47.246;9.648;2024-03-07T07:09:30;12.83;;;6.07;;
15385;SDS011;7791;47.246;9.648;2024-03-07T07:12:09;9.73;;;4.10;;
15385;SDS011;7791;47.246;9.648;2024-03-07T07:14:44;8.90;;;3.90;;
15385;SDS011;7791;47.246;9.648;2024-03-07T07:17:14;8.80;;;4.20;;
15385;SDS011;7791;47.246;9.648;2024-03-07T07:19:55;10.27;;;4.13;;
15385;SDS011;7791;47.246;9.648;2024-03-07T07:22:35;12.83;;;4.53;;
15385;SDS011;7791;47.246;9.648;2024-03-07T07:25:24;12.37;;;4.70;;
15385;SDS011;7791;47.246;9.648;2024-03-07T07:31:14;13.53;;;4.90;;
15385;SDS011;7791;47.246;9.648;2024-03-07T07:33:55;9.97;;;3.97;;
15385;SDS011;7791;47.246;9.648;2024-03-07T07:36:35;7.37;;;3.20;;
15385;SDS011;7791;47.246;9.648;2024-03-07T07:39:08;5.40;;;3.10;;
15385;SDS011;7791;47.246;9.648;2024-03-07T07:41:41;19.73;;;6.47;;
15385;SDS011;7791;47.246;9.648;2024-03-07T07:44:27;11.47;;;4.50;;
15385;SDS011;7791;47.246;9.648;2024-03-07T07:46:56;7.70;;;3.73;;
15385;SDS011;7791;47.246;9.648;2024-03-07T07:49:30;3.20;;;1.73;;
15385;SDS011;7791;47.246;9.648;2024-03-07T07:52:00;3.57;;;1.93;;
15385;SDS011;7791;47.246;9.648;2024-03-07T07:54:42;6.67;;;2.73;;
15385;SDS011;7791;47.246;9.648;2024-03-07T07:57:23;6.40;;;2.83;;
15385;SDS011;7791;47.246;9.648;2024-03-07T08:01:51;6.10;;;3.30;;
15385;SDS011;7791;47.246;9.648;2024-03-07T08:02:53;2.40;;;1.73;;
15385;SDS011;7791;47.246;9.648;2024-03-07T08:05:25;2.67;;;1.50;;
15385;SDS011;7791;47.246;9.648;2024-03-07T08:08:06;3.10;;;1.70;;
15385;SDS011;7791;47.246;9.648;2024-03-07T08:10:41;35.13;;;10.03;;
15385;SDS011;7791;47.246;9.648;2024-03-07T08:13:09;5.93;;;3.20;;
15385;SDS011;7791;47.246;9.648;2024-03-07T08:15:55;40.60;;;11.17;;
15385;SDS011;7791;47.246;9.648;2024-03-07T08:18:37;15.70;;;5.73;;
15385;SDS011;7791;47.246;9.648;2024-03-07T08:21:29;11.80;;;5.27;;
15385;SDS011;7791;47.246;9.648;2024-03-07T08:24:14;32.50;;;9.60;;
15385;SDS011;7791;47.246;9.648;2024-03-07T08:26:47;37.27;;;10.90;;
15385;SDS011;7791;47.246;9.648;2024-03-07T08:29:23;67.03;;;18.60;;
15385;SDS011;7791;47.246;9.648;2024-03-07T08:32:01;26.30;;;8.13;;
15385;SDS011;7791;47.246;9.648;2024-03-07T08:34:38;4.73;;;2.07;;
15385;SDS011;7791;47.246;9.648;2024-03-07T08:39:55;31.23;;;9.50;;
15385;SDS011;7791;47.246;9.648;2024-03-07T08:42:53;14.00;;;5.27;;
15385;SDS011;7791;47.246;9.648;2024-03-07T08:45:46;5.87;;;3.00;;
15385;SDS011;7791;47.246;9.648;2024-03-07T08:48:25;21.53;;;5.80;;
15385;SDS011;7791;47.246;9.648;2024-03-07T08:51:10;67.50;;;21.27;;
15385;SDS011;7791;47.246;9.648;2024-03-07T08:53:53;23.43;;;7.23;;
15385;SDS011;7791;47.246;9.648;2024-03-07T08:56:25;12.13;;;4.13;;
15385;SDS011;7791;47.246;9.648;2024-03-07T08:59:07;20.73;;;7.07;;
15385;SDS011;7791;47.246;9.648;2024-03-07T09:01:51;4.97;;;1.83;;
15385;SDS011;7791;47.246;9.648;2024-03-07T09:04:26;1.50;;;1.23;;
15385;SDS011;7791;47.246;9.648;2024-03-07T09:09:47;12.30;;;4.30;;
15385;SDS011;7791;47.246;9.648;2024-03-07T09:12:20;2.67;;;1.83;;
15385;SDS011;7791;47.246;9.648;2024-03-07T09:15:01;1.67;;;1.43;;
15385;SDS011;7791;47.246;9.648;2024-03-07T09:20:25;4.80;;;1.93;;
15385;SDS011;7791;47.246;9.648;2024-03-07T09:22:58;3.70;;;1.50;;
15385;SDS011;7791;47.246;9.648;2024-03-07T09:25:56;13.03;;;4.83;;
15385;SDS011;7791;47.246;9.648;2024-03-07T09:28:32;13.40;;;5.00;;
15385;SDS011;7791;47.246;9.648;2024-03-07T09:31:08;12.97;;;4.03;;
15385;SDS011;7791;47.246;9.648;2024-03-07T09:36:31;3.70;;;1.80;;
15385;SDS011;7791;47.246;9.648;2024-03-07T09:45:35;1.70;;;1.10;;
15385;SDS011;7791;47.246;9.648;2024-03-07T09:50:57;3.67;;;2.07;;
15385;SDS011;7791;47.246;9.648;2024-03-07T09:53:32;14.23;;;6.20;;
15385;SDS011;7791;47.246;9.648;2024-03-07T09:56:05;10.03;;;4.50;;
15385;SDS011;7791;47.246;9.648;2024-03-07T09:58:38;4.70;;;2.57;;
15385;SDS011;7791;47.246;9.648;2024-03-07T10:01:28;3.80;;;1.60;;
15385;SDS011;7791;47.246;9.648;2024-03-07T10:04:01;9.70;;;4.67;;
15385;SDS011;7791;47.246;9.648;2024-03-07T10:06:47;2.20;;;1.70;;
15385;SDS011;7791;47.246;9.648;2024-03-07T10:09:35;4.83;;;2.23;;
15385;SDS011;7791;47.246;9.648;2024-03-07T10:12:19;5.03;;;1.70;;
15385;SDS011;7791;47.246;9.648;2024-03-07T10:14:54;4.10;;;2.40;;
15385;SDS011;7791;47.246;9.648;2024-03-07T10:20:34;9.80;;;4.00;;
15385;SDS011;7791;47.246;9.648;2024-03-07T10:23:13;10.53;;;4.27;;
15385;SDS011;7791;47.246;9.648;2024-03-07T10:25:57;3.40;;;1.60;;
15385;SDS011;7791;47.246;9.648;2024-03-07T10:28:38;4.73;;;2.17;;
15385;SDS011;7791;47.246;9.648;2024-03-07T10:31:10;2.13;;;1.40;;
15385;SDS011;7791;47.246;9.648;2024-03-07T10:33:54;1.93;;;1.60;;
15385;SDS011;7791;47.246;9.648;2024-03-07T10:36:36;2.40;;;1.63;;
15385;SDS011;7791;47.246;9.648;2024-03-07T10:39:17;3.13;;;1.60;;
15385;SDS011;7791;47.246;9.648;2024-03-07T10:41:46;3.00;;;1.40;;
15385;SDS011;7791;47.246;9.648;2024-03-07T10:44:38;1.07;;;0.80;;
15385;SDS011;7791;47.246;9.648;2024-03-07T10:47:20;1.37;;;1.00;;
15385;SDS011;7791;47.246;9.648;2024-03-07T10:49:55;1.50;;;1.10;;
15385;SDS011;7791;47.246;9.648;2024-03-07T10:52:58;2.33;;;1.40;;
15385;SDS011;7791;47.246;9.648;2024-03-07T10:55:34;1.50;;;1.20;;
15385;SDS011;7791;47.246;9.648;2024-03-07T10:58:19;2.87;;;1.40;;
15385;SDS011;7791;47.246;9.648;2024-03-07T11:01:04;1.77;;;1.40;;
15385;SDS011;7791;47.246;9.648;2024-03-07T11:03:44;2.23;;;1.87;;
15385;SDS011;7791;47.246;9.648;2024-03-07T11:06:21;2.30;;;2.00;;
15385;SDS011;7791;47.246;9.648;2024-03-07T11:09:02;2.53;;;1.67;;
15385;SDS011;7791;47.246;9.648;2024-03-07T11:11:36;1.20;;;1.10;;
15385;SDS011;7791;47.246;9.648;2024-03-07T11:14:14;2.73;;;1.60;;
15385;SDS011;7791;47.246;9.648;2024-03-07T11:16:55;2.27;;;1.67;;
15385;SDS011;7791;47.246;9.648;2024-03-07T11:19:37;2.20;;;1.73;;
15385;SDS011;7791;47.246;9.648;2024-03-07T11:22:07;2.37;;;1.60;;
15385;SDS011;7791;47.246;9.648;2024-03-07T11:25:04;1.93;;;1.70;;
15385;SDS011;7791;47.246;9.648;2024-03-07T11:27:44;3.83;;;2.23;;
15385;SDS011;7791;47.246;9.648;2024-03-07T11:33:34;3.40;;;2.50;;
15385;SDS011;7791;47.246;9.648;2024-03-07T11:36:07;2.63;;;2.10;;
15385;SDS011;7791;47.246;9.648;2024-03-07T11:38:38;2.90;;;2.10;;
15385;SDS011;7791;47.246;9.648;2024-03-07T11:41:31;3.13;;;2.40;;
15385;SDS011;7791;47.246;9.648;2024-03-07T11:44:07;2.60;;;2.27;;
15385;SDS011;7791;47.246;9.648;2024-03-07T11:46:55;4.27;;;2.10;;
15385;SDS011;7791;47.246;9.648;2024-03-07T11:49:28;4.20;;;2.50;;
15385;SDS011;7791;47.246;9.648;2024-03-07T11:52:07;3.37;;;2.67;;
15385;SDS011;7791;47.246;9.648;2024-03-07T11:57:54;3.87;;;2.70;;
15385;SDS011;7791;47.246;9.648;2024-03-07T12:00:48;5.80;;;2.60;;
15385;SDS011;7791;47.246;9.648;2024-03-07T12:03:22;3.53;;;2.60;;
15385;SDS011;7791;47.246;9.648;2024-03-07T12:06:02;5.17;;;2.77;;
15385;SDS011;7791;47.246;9.648;2024-03-07T12:11:49;3.80;;;2.80;;
15385;SDS011;7791;47.246;9.648;2024-03-07T12:14:30;4.93;;;3.00;;
15385;SDS011;7791;47.246;9.648;2024-03-07T12:16:59;4.10;;;2.70;;
15385;SDS011;7791;47.246;9.648;2024-03-07T12:19:35;4.10;;;2.70;;
15385;SDS011;7791;47.246;9.648;2024-03-07T12:22:14;4.93;;;3.00;;
15385;SDS011;7791;47.246;9.648;2024-03-07T12:25:03;4.03;;;3.23;;
15385;SDS011;7791;47.246;9.648;2024-03-07T12:27:31;3.67;;;3.10;;
15385;SDS011;7791;47.246;9.648;2024-03-07T12:30:14;7.87;;;3.87;;
15385;SDS011;7791;47.246;9.648;2024-03-07T12:32:51;3.73;;;3.03;;
15385;SDS011;7791;47.246;9.648;2024-03-07T12:38:26;3.07;;;2.40;;
15385;SDS011;7791;47.246;9.648;2024-03-07T12:41:03;4.23;;;2.23;;
15385;SDS011;7791;47.246;9.648;2024-03-07T12:43:57;2.90;;;2.17;;
15385;SDS011;7791;47.246;9.648;2024-03-07T12:46:31;3.30;;;2.20;;
15385;SDS011;7791;47.246;9.648;2024-03-07T12:49:01;3.37;;;2.23;;
15385;SDS011;7791;47.246;9.648;2024-03-07T12:51:52;3.10;;;2.30;;
15385;SDS011;7791;47.246;9.648;2024-03-07T12:54:32;3.33;;;2.30;;
15385;SDS011;7791;47.246;9.648;2024-03-07T12:57:25;2.97;;;1.90;;
15385;SDS011;7791;47.246;9.648;2024-03-07T13:00:01;3.27;;;2.30;;
15385;SDS011;7791;47.246;9.648;2024-03-07T13:02:44;3.27;;;2.27;;
15385;SDS011;7791;47.246;9.648;2024-03-07T13:05:31;5.47;;;2.70;;
15385;SDS011;7791;47.246;9.648;2024-03-07T13:08:06;4.70;;;2.40;;
15385;SDS011;7791;47.246;9.648;2024-03-07T13:10:38;3.00;;;2.43;;
15385;SDS011;7791;47.246;9.648;2024-03-07T13:13:14;3.60;;;2.30;;
15385;SDS011;7791;47.246;9.648;2024-03-07T13:15:56;3.70;;;2.50;;
15385;SDS011;7791;47.246;9.648;2024-03-07T13:18:29;3.47;;;2.40;;
15385;SDS011;7791;47.246;9.648;2024-03-07T13:21:06;3.53;;;2.53;;
15385;SDS011;7791;47.246;9.648;2024-03-07T13:23:36;5.27;;;3.10;;
15385;SDS011;7791;47.246;9.648;2024-03-07T13:26:10;5.67;;;3.40;;
15385;SDS011;7791;47.246;9.648;2024-03-07T13:28:48;4.57;;;3.23;;
15385;SDS011;7791;47.246;9.648;2024-03-07T13:31:27;4.87;;;3.20;;
15385;SDS011;7791;47.246;9.648;2024-03-07T13:34:11;6.20;;;3.97;;
15385;SDS011;7791;47.246;9.648;2024-03-07T13:36:39;6.20;;;4.03;;
15385;SDS011;7791;47.246;9.648;2024-03-07T13:39:18;5.93;;;3.70;;
15385;SDS011;7791;47.246;9.648;2024-03-07T13:41:50;7.97;;;4.27;;
15385;SDS011;7791;47.246;9.648;2024-03-07T13:47:16;4.67;;;3.30;;
15385;SDS011;7791;47.246;9.648;2024-03-07T13:49:58;4.53;;;3.07;;
15385;SDS011;7791;47.246;9.648;2024-03-07T13:52:35;6.47;;;3.80;;
15385;SDS011;7791;47.246;9.648;2024-03-07T13:55:12;8.27;;;4.10;;
15385;SDS011;7791;47.246;9.648;2024-03-07T13:57:54;6.13;;;3.97;;
15385;SDS011;7791;47.246;9.648;2024-03-07T14:00:32;6.10;;;3.80;;
15385;SDS011;7791;47.246;9.648;2024-03-07T14:03:22;6.23;;;3.50;;
15385;SDS011;7791;47.246;9.648;2024-03-07T14:06:47;5.10;;;3.33;;
15385;SDS011;7791;47.246;9.648;2024-03-07T14:12:26;6.87;;;3.90;;
15385;SDS011;7791;47.246;9.648;2024-03-07T14:21:29;6.57;;;3.90;;
15385;SDS011;7791;47.246;9.648;2024-03-07T14:24:28;6.37;;;3.80;;
15385;SDS011;7791;47.246;9.648;2024-03-07T14:27:27;6.10;;;3.97;;
15385;SDS011;7791;47.246;9.648;2024-03-07T14:30:09;5.77;;;3.80;;
15385;SDS011;7791;47.246;9.648;2024-03-07T14:32:50;8.23;;;4.17;;
15385;SDS011;7791;47.246;9.648;2024-03-07T14:35:28;7.90;;;4.60;;
15385;SDS011;7791;47.246;9.648;2024-03-07T14:38:05;9.07;;;5.10;;
15385;SDS011;7791;47.246;9.648;2024-03-07T14:40:53;8.80;;;4.67;;
15385;SDS011;7791;47.246;9.648;2024-03-07T14:43:39;8.80;;;4.60;;
15385;SDS011;7791;47.246;9.648;2024-03-07T14:46:15;9.60;;;5.03;;
15385;SDS011;7791;47.246;9.648;2024-03-07T14:49:12;8.43;;;4.70;;
15385;SDS011;7791;47.246;9.648;2024-03-07T14:54:39;12.87;;;5.07;;
15385;SDS011;7791;47.246;9.648;2024-03-07T15:00:00;11.87;;;5.80;;
15385;SDS011;7791;47.246;9.648;2024-03-07T15:02:53;11.33;;;5.70;;
15385;SDS011;7791;47.246;9.648;2024-03-07T15:05:36;13.03;;;6.43;;
15385;SDS011;7791;47.246;9.648;2024-03-07T15:08:17;12.17;;;5.73;;
15385;SDS011;7791;47.246;9.648;2024-03-07T15:11:02;10.27;;;5.47;;
15385;SDS011;7791;47.246;9.648;2024-03-07T15:14:13;10.60;;;5.97;;
15385;SDS011;7791;47.246;9.648;2024-03-07T15:16:47;10.70;;;5.63;;
15385;SDS011;7791;47.246;9.648;2024-03-07T15:19:22;9.87;;;4.90;;
15385;SDS011;7791;47.246;9.648;2024-03-07T15:21:59;9.83;;;4.83;;
15385;SDS011;7791;47.246;9.648;2024-03-07T15:24:32;9.33;;;5.53;;
15385;SDS011;7791;47.246;9.648;2024-03-07T15:27:12;10.00;;;5.57;;
15385;SDS011;7791;47.246;9.648;2024-03-07T15:35:37;11.10;;;5.00;;
15385;SDS011;7791;47.246;9.648;2024-03-07T15:38:15;12.33;;;5.40;;
15385;SDS011;7791;47.246;9.648;2024-03-07T15:41:15;13.57;;;5.73;;
15385;SDS011;7791;47.246;9.648;2024-03-07T15:49:21;14.20;;;7.00;;
15385;SDS011;7791;47.246;9.648;2024-03-07T15:55:01;17.60;;;7.77;;
15385;SDS011;7791;47.246;9.648;2024-03-07T15:57:35;16.83;;;8.47;;
15385;SDS011;7791;47.246;9.648;2024-03-07T16:00:16;19.43;;;8.80;;
15385;SDS011;7791;47.246;9.648;2024-03-07T16:08:55;17.77;;;8.73;;
15385;SDS011;7791;47.246;9.648;2024-03-07T16:11:44;17.03;;;8.57;;
15385;SDS011;7791;47.246;9.648;2024-03-07T16:14:27;20.30;;;9.00;;
15385;SDS011;7791;47.246;9.648;2024-03-07T16:17:08;20.93;;;9.60;;
15385;SDS011;7791;47.246;9.648;2024-03-07T16:19:44;20.50;;;9.73;;
15385;SDS011;7791;47.246;9.648;2024-03-07T16:22:33;20.73;;;9.70;;
15385;SDS011;7791;47.246;9.648;2024-03-07T16:25:17;17.97;;;9.23;;
15385;SDS011;7791;47.246;9.648;2024-03-07T16:27:54;19.80;;;9.37;;
15385;SDS011;7791;47.246;9.648;2024-03-07T16:30:26;20.17;;;9.60;;
15385;SDS011;7791;47.246;9.648;2024-03-07T16:33:11;24.97;;;10.30;;
15385;SDS011;7791;47.246;9.648;2024-03-07T16:35:40;21.80;;;10.63;;
15385;SDS011;7791;47.246;9.648;2024-03-07T16:41:12;23.47;;;11.17;;
15385;SDS011;7791;47.246;9.648;2024-03-07T16:43:55;23.97;;;10.67;;
15385;SDS011;7791;47.246;9.648;2024-03-07T16:49:28;26.80;;;11.97;;
15385;SDS011;7791;47.246;9.648;2024-03-07T16:52:06;24.17;;;11.43;;
15385;SDS011;7791;47.246;9.648;2024-03-07T16:54:43;27.40;;;11.77;;
15385;SDS011;7791;47.246;9.648;2024-03-07T17:00:25;28.07;;;12.03;;
15385;SDS011;7791;47.246;9.648;2024-03-07T17:05:46;31.13;;;12.33;;
15385;SDS011;7791;47.246;9.648;2024-03-07T17:08:24;28.73;;;13.70;;
15385;SDS011;7791;47.246;9.648;2024-03-07T17:11:11;28.10;;;12.87;;
15385;SDS011;7791;47.246;9.648;2024-03-07T17:19:39;31.63;;;13.30;;
15385;SDS011;7791;47.246;9.648;2024-03-07T17:22:12;30.73;;;13.73;;
15385;SDS011;7791;47.246;9.648;2024-03-07T17:24:53;26.67;;;13.03;;
15385;SDS011;7791;47.246;9.648;2024-03-07T17:27:38;29.53;;;13.70;;
15385;SDS011;7791;47.246;9.648;2024-03-07T17:30:21;30.73;;;12.93;;
15385;SDS011;7791;47.246;9.648;2024-03-07T17:32:54;26.33;;;12.67;;
15385;SDS011;7791;47.246;9.648;2024-03-07T17:41:48;26.47;;;12.00;;
15385;SDS011;7791;47.246;9.648;2024-03-07T17:44:19;27.47;;;13.60;;
15385;SDS011;7791;47.246;9.648;2024-03-07T17:47:22;29.50;;;12.73;;
15385;SDS011;7791;47.246;9.648;2024-03-07T17:50:05;24.77;;;11.73;;
15385;SDS011;7791;47.246;9.648;2024-03-07T17:52:47;24.57;;;12.20;;
15385;SDS011;7791;47.246;9.648;2024-03-07T17:55:24;28.83;;;13.63;;
15385;SDS011;7791;47.246;9.648;2024-03-07T17:58:04;50.43;;;26.17;;
15385;SDS011;7791;47.246;9.648;2024-03-07T18:00:52;31.67;;;14.07;;
15385;SDS011;7791;47.246;9.648;2024-03-07T18:03:29;32.53;;;15.67;;
15385;SDS011;7791;47.246;9.648;2024-03-07T18:06:05;30.90;;;14.20;;
15385;SDS011;7791;47.246;9.648;2024-03-07T18:08:33;31.53;;;14.27;;
15385;SDS011;7791;47.246;9.648;2024-03-07T18:11:05;30.93;;;13.70;;
15385;SDS011;7791;47.246;9.648;2024-03-07T18:13:38;31.90;;;13.77;;
15385;SDS011;7791;47.246;9.648;2024-03-07T18:16:19;26.87;;;12.80;;
15385;SDS011;7791;47.246;9.648;2024-03-07T18:21:44;69.67;;;33.40;;
15385;SDS011;7791;47.246;9.648;2024-03-07T18:24:25;35.23;;;15.17;;
15385;SDS011;7791;47.246;9.648;2024-03-07T18:30:10;27.00;;;11.97;;
15385;SDS011;7791;47.246;9.648;2024-03-07T18:32:40;27.50;;;12.83;;
15385;SDS011;7791;47.246;9.648;2024-03-07T18:35:20;27.47;;;12.23;;
15385;SDS011;7791;47.246;9.648;2024-03-07T18:38:02;25.80;;;11.37;;
15385;SDS011;7791;47.246;9.648;2024-03-07T18:40:37;29.27;;;12.30;;
15385;SDS011;7791;47.246;9.648;2024-03-07T18:43:05;26.80;;;12.17;;